Time;durP1;ratioP1;P1;durP2;ratioP2;P2;SDS_P1;SDS_P2;PMS_P1;PMS_P2;Temp;Humidity;BMP_temperature;BMP_pressure;BME280_temperature;BME280_humidity;BME280_pressure;Samples;Min_cycle;Max_cycle;Signal;HPM_P1;HPM_P2
2021/07/28 00:00:58;;;;;;;21.73;16.77;;;;;;;;;;5031500;28;20049;-64
2021/07/28 00:03:43;;;;;;;21.73;16.67;;;;;;;;;;5032551;28;20038;-63
2021/07/28 00:06:28;;;;;;;20.75;16.73;;;;;;;;;;5031927;28;20128;-63
2021/07/28 00:09:14;;;;;;;23.00;16.77;;;;;;;;;;5032003;28;20050;-64
2021/07/28 00:12:00;;;;;;;24.13;17.73;;;;;;;;;;5030152;28;20107;-64
2021/07/28 00:14:45;;;;;;;23.02;17.42;;;;;;;;;;5023150;28;20050;-63
2021/07/28 00:17:31;;;;;;;23.60;17.40;;;;;;;;;;4992454;28;20054;-63
2021/07/28 00:23:20;;;;;;;24.42;17.73;;;;;;;;;;4992287;28;20115;-64
2021/07/28 00:26:05;;;;;;;25.60;18.42;;;;;;;;;;5008850;28;20042;-64
2021/07/28 00:28:51;;;;;;;27.63;18.73;;;;;;;;;;5012060;28;20050;-64
2021/07/28 00:31:36;;;;;;;28.35;20.55;;;;;;;;;;5014524;28;20050;-64
2021/07/28 00:34:21;;;;;;;26.58;18.98;;;;;;;;;;5015427;28;20053;-64
2021/07/28 00:37:07;;;;;;;26.33;20.48;;;;;;;;;;4996048;28;20058;-64
2021/07/28 00:39:52;;;;;;;28.67;20.17;;;;;;;;;;5010781;28;20099;-63
2021/07/28 00:42:37;;;;;;;30.77;21.75;;;;;;;;;;5035370;28;20492;-63
2021/07/28 00:45:23;;;;;;;31.42;20.90;;;;;;;;;;5031496;28;20400;-64
2021/07/28 00:48:09;;;;;;;30.80;21.58;;;;;;;;;;5035689;28;20136;-64
2021/07/28 00:50:55;;;;;;;34.75;21.60;;;;;;;;;;5035237;28;20119;-64
2021/07/28 00:53:40;;;;;;;36.30;22.75;;;;;;;;;;5035188;28;20175;-64
2021/07/28 00:56:27;;;;;;;37.40;22.90;;;;;;;;;;5033683;28;20137;-64
2021/07/28 00:59:12;;;;;;;37.92;24.40;;;;;;;;;;5035273;28;20049;-64
2021/07/28 01:01:57;;;;;;;35.17;23.45;;;;;;;;;;5035010;28;20057;-64
2021/07/28 01:04:43;;;;;;;36.35;24.67;;;;;;;;;;5035113;28;20068;-64
2021/07/28 01:07:28;;;;;;;34.30;23.30;;;;;;;;;;5032591;28;20052;-64
2021/07/28 01:10:13;;;;;;;41.72;24.08;;;;;;;;;;5035125;28;20042;-64
2021/07/28 01:12:59;;;;;;;35.10;24.00;;;;;;;;;;5036596;28;20052;-64
2021/07/28 01:15:47;;;;;;;40.42;24.52;;;;;;;;;;5034972;28;20059;-63
2021/07/28 01:18:32;;;;;;;39.03;26.25;;;;;;;;;;5034777;28;20415;-64
2021/07/28 01:21:18;;;;;;;35.58;24.55;;;;;;;;;;5034374;28;20128;-63
2021/07/28 01:24:03;;;;;;;37.65;24.90;;;;;;;;;;5034606;28;20049;-63
2021/07/28 01:26:48;;;;;;;35.72;23.75;;;;;;;;;;5032825;28;20119;-63
2021/07/28 01:29:34;;;;;;;38.30;25.33;;;;;;;;;;5033583;28;20056;-63
2021/07/28 01:32:19;;;;;;;42.47;24.80;;;;;;;;;;5035291;28;20045;-64
2021/07/28 01:35:06;;;;;;;34.03;22.90;;;;;;;;;;5035656;28;20049;-64
2021/07/28 01:37:51;;;;;;;43.50;24.42;;;;;;;;;;5031856;28;20128;-64
2021/07/28 01:40:38;;;;;;;41.95;24.40;;;;;;;;;;5035642;28;20052;-64
2021/07/28 01:43:24;;;;;;;44.30;26.15;;;;;;;;;;5034508;28;20496;-63
2021/07/28 01:46:09;;;;;;;49.20;27.52;;;;;;;;;;5034214;28;20048;-63
2021/07/28 01:48:55;;;;;;;50.67;28.10;;;;;;;;;;5032497;28;20053;-64
2021/07/28 01:51:42;;;;;;;49.05;27.40;;;;;;;;;;5032592;28;20509;-63
2021/07/28 01:54:27;;;;;;;49.28;29.40;;;;;;;;;;5034083;28;20128;-63
2021/07/28 01:57:12;;;;;;;52.83;27.80;;;;;;;;;;5034169;28;20045;-64
2021/07/28 02:00:01;;;;;;;52.35;29.02;;;;;;;;;;5034981;28;20131;-63
2021/07/28 02:02:48;;;;;;;46.45;28.08;;;;;;;;;;5033751;28;20142;-63
2021/07/28 02:05:34;;;;;;;47.60;28.83;;;;;;;;;;5034103;28;20049;-63
2021/07/28 02:08:19;;;;;;;48.75;29.17;;;;;;;;;;5032610;28;20041;-64
2021/07/28 02:11:04;;;;;;;50.65;30.45;;;;;;;;;;5033616;28;20053;-64
2021/07/28 02:13:50;;;;;;;50.40;29.38;;;;;;;;;;5033605;28;20081;-63
2021/07/28 02:16:35;;;;;;;57.75;30.52;;;;;;;;;;5033915;28;20052;-64
2021/07/28 02:19:20;;;;;;;57.25;29.85;;;;;;;;;;5031743;28;20056;-63
2021/07/28 02:22:06;;;;;;;59.13;30.35;;;;;;;;;;5033649;28;20050;-63
2021/07/28 02:24:51;;;;;;;59.17;31.45;;;;;;;;;;5033974;28;20049;-64
2021/07/28 02:27:36;;;;;;;63.78;33.25;;;;;;;;;;5034532;28;20455;-63
2021/07/28 02:30:22;;;;;;;60.50;31.73;;;;;;;;;;5031632;28;20396;-64
2021/07/28 02:33:08;;;;;;;56.65;32.50;;;;;;;;;;5032450;28;20048;-64
2021/07/28 02:35:53;;;;;;;59.13;33.33;;;;;;;;;;5032528;28;20049;-63
2021/07/28 02:38:38;;;;;;;55.03;33.03;;;;;;;;;;5034252;28;20037;-64
2021/07/28 02:41:25;;;;;;;60.22;32.67;;;;;;;;;;5033293;28;20049;-64
2021/07/28 02:44:10;;;;;;;57.60;32.25;;;;;;;;;;5033087;28;20048;-64
2021/07/28 02:46:56;;;;;;;47.92;30.92;;;;;;;;;;5023701;28;20054;-64
2021/07/28 02:49:42;;;;;;;55.88;30.88;;;;;;;;;;5007932;28;20137;-64
2021/07/28 02:52:27;;;;;;;56.95;31.30;;;;;;;;;;5013325;28;20447;-64
2021/07/28 02:55:13;;;;;;;50.47;29.27;;;;;;;;;;5014628;28;20050;-64
2021/07/28 02:57:58;;;;;;;53.67;31.65;;;;;;;;;;5013488;28;20057;-64
2021/07/28 03:00:44;;;;;;;58.55;31.48;;;;;;;;;;5021912;28;20045;-63
2021/07/28 03:03:29;;;;;;;51.22;29.80;;;;;;;;;;5083738;22;20102;-66
2021/07/28 03:06:14;;;;;;;53.53;30.92;;;;;;;;;;5064060;28;20118;-63
2021/07/28 03:08:59;;;;;;;49.92;30.15;;;;;;;;;;5068142;28;20420;-64
2021/07/28 03:11:45;;;;;;;56.28;33.13;;;;;;;;;;5032564;28;20049;-64
2021/07/28 03:14:31;;;;;;;56.17;31.17;;;;;;;;;;5059208;28;20040;-65
2021/07/28 03:17:17;;;;;;;58.85;32.97;;;;;;;;;;5052191;28;20150;-64
2021/07/28 03:20:02;;;;;;;64.57;33.55;;;;;;;;;;5067242;28;20040;-63
2021/07/28 03:22:47;;;;;;;61.45;31.30;;;;;;;;;;5072341;28;20053;-65
2021/07/28 03:25:32;;;;;;;63.28;33.15;;;;;;;;;;5071267;28;20064;-64
2021/07/28 03:28:18;;;;;;;56.55;31.52;;;;;;;;;;5072393;28;20052;-64
2021/07/28 03:31:03;;;;;;;65.40;33.30;;;;;;;;;;5072132;28;20056;-64
2021/07/28 03:33:49;;;;;;;68.30;34.22;;;;;;;;;;5072099;28;20060;-64
2021/07/28 03:36:34;;;;;;;64.07;33.75;;;;;;;;;;5068452;28;20040;-64
2021/07/28 03:39:19;;;;;;;62.35;33.95;;;;;;;;;;5071954;28;20556;-64
2021/07/28 03:42:05;;;;;;;67.20;34.67;;;;;;;;;;5066108;28;20529;-63
2021/07/28 03:44:50;;;;;;;63.80;35.05;;;;;;;;;;5050919;28;20041;-64
2021/07/28 03:47:36;;;;;;;66.20;34.35;;;;;;;;;;5052129;28;20410;-64
2021/07/28 03:50:21;;;;;;;62.50;33.72;;;;;;;;;;5068391;28;20051;-65
2021/07/28 03:53:06;;;;;;;62.45;33.80;;;;;;;;;;5071880;28;20060;-64
2021/07/28 03:55:52;;;;;;;63.67;33.25;;;;;;;;;;5071856;28;20049;-64
2021/07/28 03:58:37;;;;;;;56.88;32.30;;;;;;;;;;5071214;28;20054;-63
2021/07/28 04:01:22;;;;;;;62.90;34.05;;;;;;;;;;5071417;28;20048;-63
2021/07/28 04:04:08;;;;;;;70.28;34.58;;;;;;;;;;5070591;28;20033;-64
2021/07/28 04:06:53;;;;;;;58.92;32.28;;;;;;;;;;5075971;28;20062;-64
2021/07/28 04:09:39;;;;;;;65.85;34.08;;;;;;;;;;5075682;28;20063;-64
2021/07/28 04:12:24;;;;;;;53.88;30.90;;;;;;;;;;5073904;28;20041;-64
2021/07/28 04:15:10;;;;;;;61.78;33.40;;;;;;;;;;5074077;28;20045;-65
2021/07/28 04:17:55;;;;;;;57.88;32.17;;;;;;;;;;5057510;28;20049;-64
2021/07/28 04:20:41;;;;;;;53.13;30.88;;;;;;;;;;5055635;28;20048;-63
2021/07/28 04:23:26;;;;;;;57.50;31.67;;;;;;;;;;5056630;28;20052;-64
2021/07/28 04:26:11;;;;;;;57.17;30.48;;;;;;;;;;5055711;28;20056;-63
2021/07/28 04:28:57;;;;;;;58.00;32.30;;;;;;;;;;5056548;28;20056;-64
2021/07/28 04:31:42;;;;;;;56.80;30.73;;;;;;;;;;5055414;28;20049;-64
2021/07/28 04:34:28;;;;;;;54.95;32.35;;;;;;;;;;5055352;28;20053;-63
2021/07/28 04:37:13;;;;;;;49.75;29.95;;;;;;;;;;5058061;28;20399;-63
2021/07/28 04:40:01;;;;;;;54.65;32.47;;;;;;;;;;5055187;28;20404;-63
2021/07/28 04:42:46;;;;;;;55.47;31.83;;;;;;;;;;5062336;28;20094;-65
2021/07/28 04:45:32;;;;;;;56.67;33.72;;;;;;;;;;5075295;28;20130;-63
2021/07/28 04:48:17;;;;;;;56.45;33.15;;;;;;;;;;5075203;28;20506;-64
2021/07/28 04:51:03;;;;;;;56.35;32.25;;;;;;;;;;5074101;28;20109;-63
2021/07/28 04:53:48;;;;;;;54.50;33.50;;;;;;;;;;5075283;28;20056;-63
2021/07/28 04:56:34;;;;;;;53.28;32.03;;;;;;;;;;5073695;28;20036;-63
2021/07/28 04:59:19;;;;;;;50.13;31.52;;;;;;;;;;5074981;28;20044;-64
2021/07/28 05:02:05;;;;;;;50.20;31.40;;;;;;;;;;5074964;28;20071;-64
2021/07/28 05:04:50;;;;;;;56.80;33.28;;;;;;;;;;5064001;28;20387;-65
2021/07/28 05:07:35;;;;;;;48.53;31.85;;;;;;;;;;5064069;28;20036;-64
2021/07/28 05:10:21;;;;;;;53.20;33.28;;;;;;;;;;5064114;28;20041;-63
2021/07/28 05:13:06;;;;;;;51.00;33.60;;;;;;;;;;5065297;28;20114;-64
2021/07/28 05:15:53;;;;;;;49.90;34.30;;;;;;;;;;5063356;28;20061;-64
2021/07/28 05:18:39;;;;;;;55.45;35.85;;;;;;;;;;5060969;28;20379;-63
2021/07/28 05:21:24;;;;;;;50.80;36.53;;;;;;;;;;5061718;28;20044;-64
2021/07/28 05:24:09;;;;;;;54.33;35.50;;;;;;;;;;5063384;28;20036;-64
2021/07/28 05:26:55;;;;;;;52.45;34.58;;;;;;;;;;5064797;28;20107;-63
2021/07/28 05:29:40;;;;;;;49.92;35.28;;;;;;;;;;5066490;28;20044;-63
2021/07/28 05:32:25;;;;;;;50.03;34.50;;;;;;;;;;5063454;28;20041;-63
2021/07/28 05:35:11;;;;;;;54.83;35.25;;;;;;;;;;5062656;28;20055;-65
2021/07/28 05:37:59;;;;;;;51.95;35.17;;;;;;;;;;5064791;28;20052;-64
2021/07/28 05:40:45;;;;;;;43.50;32.35;;;;;;;;;;5062792;28;20036;-64
2021/07/28 05:43:30;;;;;;;48.33;33.13;;;;;;;;;;5062799;28;20094;-63
2021/07/28 05:46:15;;;;;;;50.22;35.90;;;;;;;;;;5062245;28;20048;-64
2021/07/28 05:49:01;;;;;;;44.65;33.38;;;;;;;;;;5064981;28;20044;-64
2021/07/28 05:51:47;;;;;;;41.40;31.92;;;;;;;;;;5063100;28;20051;-64
2021/07/28 05:54:32;;;;;;;44.90;33.83;;;;;;;;;;5061498;28;20094;-63
2021/07/28 05:57:18;;;;;;;45.08;32.25;;;;;;;;;;5064854;28;20056;-64
2021/07/28 06:00:04;;;;;;;42.83;31.02;;;;;;;;;;5062608;28;20036;-64
2021/07/28 06:02:49;;;;;;;43.72;32.50;;;;;;;;;;5063239;28;20044;-64
2021/07/28 06:05:36;;;;;;;43.05;32.08;;;;;;;;;;5073943;28;20044;-64
2021/07/28 06:08:22;;;;;;;48.17;34.03;;;;;;;;;;5064135;28;20045;-63
2021/07/28 06:11:07;;;;;;;42.13;30.30;;;;;;;;;;5060255;28;20047;-63
2021/07/28 06:13:52;;;;;;;40.92;30.55;;;;;;;;;;5063521;28;20049;-65
2021/07/28 06:16:39;;;;;;;39.53;29.38;;;;;;;;;;5063686;28;20044;-64
2021/07/28 06:19:24;;;;;;;37.45;28.38;;;;;;;;;;5058914;28;20122;-64
2021/07/28 06:22:10;;;;;;;39.72;30.85;;;;;;;;;;5063239;28;20044;-65
2021/07/28 06:24:55;;;;;;;33.65;27.27;;;;;;;;;;5063352;28;20051;-64
2021/07/28 06:27:41;;;;;;;38.55;29.75;;;;;;;;;;5062728;28;20110;-65
2021/07/28 06:30:26;;;;;;;38.75;28.25;;;;;;;;;;5063006;28;20052;-64
2021/07/28 06:33:12;;;;;;;33.72;26.90;;;;;;;;;;5064010;28;20497;-65
2021/07/28 06:35:57;;;;;;;40.13;29.73;;;;;;;;;;5063785;28;20495;-65
2021/07/28 06:38:43;;;;;;;39.72;29.23;;;;;;;;;;5062132;28;20120;-65
2021/07/28 06:41:28;;;;;;;34.40;26.42;;;;;;;;;;5061757;28;20048;-65
2021/07/28 06:44:14;;;;;;;33.10;25.73;;;;;;;;;;5060694;28;20037;-64
2021/07/28 06:46:59;;;;;;;31.23;25.20;;;;;;;;;;5062313;28;20041;-64
2021/07/28 06:49:45;;;;;;;31.65;24.95;;;;;;;;;;5061898;28;20041;-64
2021/07/28 06:52:31;;;;;;;34.33;25.00;;;;;;;;;;5062816;28;20059;-65
2021/07/28 06:55:16;;;;;;;34.33;27.73;;;;;;;;;;5062918;28;20183;-64
2021/07/28 06:58:02;;;;;;;35.95;26.95;;;;;;;;;;5061385;28;20048;-64
2021/07/28 07:00:47;;;;;;;31.20;25.00;;;;;;;;;;5059376;28;20047;-64
2021/07/28 07:03:32;;;;;;;34.42;26.25;;;;;;;;;;5062622;28;20044;-64
2021/07/28 07:06:17;;;;;;;31.38;27.67;;;;;;;;;;5062434;28;20496;-64
2021/07/28 07:09:03;;;;;;;30.65;26.60;;;;;;;;;;5061415;28;20065;-64
2021/07/28 07:11:48;;;;;;;32.72;26.52;;;;;;;;;;5061990;28;20049;-65
2021/07/28 07:14:35;;;;;;;28.05;24.48;;;;;;;;;;5061139;28;20059;-66
2021/07/28 07:17:20;;;;;;;29.10;25.52;;;;;;;;;;5062905;28;20719;-66
2021/07/28 07:20:06;;;;;;;31.65;25.38;;;;;;;;;;5061399;28;20052;-66
2021/07/28 07:22:51;;;;;;;32.42;25.92;;;;;;;;;;5062647;28;20048;-66
2021/07/28 07:25:36;;;;;;;33.38;26.10;;;;;;;;;;5062951;28;20044;-66
2021/07/28 07:28:22;;;;;;;31.33;26.55;;;;;;;;;;5063130;28;20147;-67
2021/07/28 07:31:10;;;;;;;28.67;25.50;;;;;;;;;;5059756;28;20055;-67
2021/07/28 07:33:56;;;;;;;30.65;25.40;;;;;;;;;;5061367;28;20122;-67
2021/07/28 07:36:41;;;;;;;26.58;23.33;;;;;;;;;;5060576;28;20033;-67
2021/07/28 07:39:26;;;;;;;29.45;25.45;;;;;;;;;;5058664;28;20063;-67
2021/07/28 07:42:12;;;;;;;27.17;23.63;;;;;;;;;;5066732;28;20047;-67
2021/07/28 07:44:58;;;;;;;31.17;26.55;;;;;;;;;;5064325;28;20044;-67
2021/07/28 07:47:43;;;;;;;29.20;26.00;;;;;;;;;;5066268;28;20119;-67
2021/07/28 07:50:35;;;;;;;28.42;23.83;;;;;;;;;;5066787;28;20043;-66
2021/07/28 07:53:21;;;;;;;31.02;25.50;;;;;;;;;;5062304;28;20040;-67
2021/07/28 07:56:06;;;;;;;26.00;23.20;;;;;;;;;;5061347;28;20052;-67
2021/07/28 07:58:51;;;;;;;26.60;22.75;;;;;;;;;;5062514;28;20063;-66
2021/07/28 08:01:38;;;;;;;23.23;20.88;;;;;;;;;;5069077;28;20090;-67
2021/07/28 08:04:23;;;;;;;25.00;22.02;;;;;;;;;;5068938;28;20056;-68
2021/07/28 08:07:09;;;;;;;21.17;17.33;;;;;;;;;;5068796;28;20120;-68
2021/07/28 08:09:54;;;;;;;23.20;20.70;;;;;;;;;;5046203;28;20049;-67
2021/07/28 08:12:40;;;;;;;22.13;19.65;;;;;;;;;;5060725;28;20052;-67
2021/07/28 08:15:25;;;;;;;22.80;20.42;;;;;;;;;;5068893;28;20040;-66
2021/07/28 08:18:10;;;;;;;20.83;18.63;;;;;;;;;;5069516;28;20043;-66
2021/07/28 08:20:55;;;;;;;21.48;19.00;;;;;;;;;;5061598;28;20048;-67
2021/07/28 08:23:41;;;;;;;25.25;20.35;;;;;;;;;;5056734;28;20059;-67
2021/07/28 08:26:26;;;;;;;21.20;18.90;;;;;;;;;;5068133;28;20046;-67
2021/07/28 08:29:12;;;;;;;21.13;18.92;;;;;;;;;;5068984;28;20063;-67
2021/07/28 08:31:57;;;;;;;21.83;19.08;;;;;;;;;;5066542;28;20868;-66
2021/07/28 08:34:42;;;;;;;21.08;18.85;;;;;;;;;;5057014;28;20182;-67
2021/07/28 08:37:27;;;;;;;19.30;17.27;;;;;;;;;;5058129;28;20090;-67
2021/07/28 08:40:16;;;;;;;21.83;18.40;;;;;;;;;;5058614;28;20047;-65
2021/07/28 08:43:01;;;;;;;20.58;18.48;;;;;;;;;;5060354;28;20040;-64
2021/07/28 08:45:48;;;;;;;20.23;18.17;;;;;;;;;;5053361;28;20053;-65
2021/07/28 08:48:33;;;;;;;19.88;17.52;;;;;;;;;;5049018;28;20041;-65
2021/07/28 08:51:18;;;;;;;19.92;17.10;;;;;;;;;;5065120;28;20537;-67
2021/07/28 08:54:04;;;;;;;20.10;16.30;;;;;;;;;;5073017;28;20068;-64
2021/07/28 08:56:49;;;;;;;17.58;15.65;;;;;;;;;;5062902;28;20519;-66
2021/07/28 08:59:34;;;;;;;18.60;16.60;;;;;;;;;;5071499;28;20498;-64
2021/07/28 09:02:19;;;;;;;16.67;14.93;;;;;;;;;;5072499;28;20076;-65
2021/07/28 09:05:05;;;;;;;18.27;16.30;;;;;;;;;;5065917;28;20148;-65
2021/07/28 09:07:54;;;;;;;15.85;14.25;;;;;;;;;;5086207;22;20052;-65
2021/07/28 09:10:39;;;;;;;15.85;14.27;;;;;;;;;;5028300;28;20049;-65
2021/07/28 09:13:31;;;;;;;16.30;13.45;;;;;;;;;;5022014;28;20057;-65
2021/07/28 09:16:17;;;;;;;15.93;14.17;;;;;;;;;;5022536;28;20539;-65
2021/07/28 09:19:02;;;;;;;14.25;12.88;;;;;;;;;;5022621;28;20039;-65
2021/07/28 09:21:47;;;;;;;13.75;11.90;;;;;;;;;;5022493;28;20037;-65
2021/07/28 09:24:32;;;;;;;13.35;12.05;;;;;;;;;;5006927;28;20069;-65
2021/07/28 09:27:36;;;;;;;10.98;9.85;;;;;;;;;;5023065;28;20047;-65
2021/07/28 09:30:25;;;;;;;14.18;9.95;;;;;;;;;;5018571;28;20130;-65
2021/07/28 09:33:10;;;;;;;11.93;10.70;;;;;;;;;;5020507;28;20074;-65
2021/07/28 09:35:56;;;;;;;11.50;10.40;;;;;;;;;;5011297;28;20062;-66
2021/07/28 09:38:47;;;;;;;9.48;8.32;;;;;;;;;;5001582;28;20046;-65
2021/07/28 09:41:38;;;;;;;9.95;8.95;;;;;;;;;;5012324;28;20504;-65
2021/07/28 09:44:24;;;;;;;10.10;8.25;;;;;;;;;;5010401;28;20080;-65
2021/07/28 09:47:09;;;;;;;13.52;8.13;;;;;;;;;;5011241;28;20048;-64
2021/07/28 09:50:03;;;;;;;10.10;7.63;;;;;;;;;;5009698;28;20512;-64
2021/07/28 09:52:51;;;;;;;8.85;8.00;;;;;;;;;;5012651;28;20064;-64
2021/07/28 09:55:39;;;;;;;14.48;9.93;;;;;;;;;;5012183;28;20049;-64
2021/07/28 09:58:24;;;;;;;10.20;9.20;;;;;;;;;;5010963;28;20038;-64
2021/07/28 10:01:10;;;;;;;11.38;9.40;;;;;;;;;;5009317;28;20538;-64
2021/07/28 10:03:55;;;;;;;12.25;9.00;;;;;;;;;;5009758;28;20049;-64
2021/07/28 10:06:43;;;;;;;10.20;9.27;;;;;;;;;;5011198;28;20049;-64
2021/07/28 10:09:33;;;;;;;9.80;8.82;;;;;;;;;;5011769;28;20068;-64
2021/07/28 10:12:19;;;;;;;10.13;9.07;;;;;;;;;;5009355;28;20514;-64
2021/07/28 10:15:26;;;;;;;10.15;9.07;;;;;;;;;;5011593;28;20526;-63
2021/07/28 10:18:12;;;;;;;9.75;8.93;;;;;;;;;;5011392;28;20399;-64
2021/07/28 10:20:57;;;;;;;11.30;9.55;;;;;;;;;;5008701;28;20434;-64
2021/07/28 10:23:45;;;;;;;9.65;8.70;;;;;;;;;;5011303;28;20053;-63
2021/07/28 10:26:34;;;;;;;11.73;8.88;;;;;;;;;;5005284;28;20068;-64
2021/07/28 10:29:20;;;;;;;9.93;8.90;;;;;;;;;;5010840;28;20046;-63
2021/07/28 10:32:05;;;;;;;10.48;9.38;;;;;;;;;;5010451;28;20121;-64
2021/07/28 10:34:50;;;;;;;10.23;9.13;;;;;;;;;;5011891;28;20057;-63
2021/07/28 10:37:35;;;;;;;7.63;6.93;;;;;;;;;;5010480;28;20042;-63
2021/07/28 10:40:31;;;;;;;9.15;7.57;;;;;;;;;;4990951;28;20056;-64
2021/07/28 10:43:16;;;;;;;10.52;7.13;;;;;;;;;;5006042;28;20049;-64
2021/07/28 10:46:01;;;;;;;10.75;8.27;;;;;;;;;;5009532;28;20052;-64
2021/07/28 10:48:53;;;;;;;9.38;8.52;;;;;;;;;;5011673;28;20053;-64
2021/07/28 10:51:50;;;;;;;10.93;8.98;;;;;;;;;;5010422;28;20056;-64
2021/07/28 10:54:52;;;;;;;15.32;10.73;;;;;;;;;;5011666;28;20054;-64
2021/07/28 10:57:46;;;;;;;12.13;10.48;;;;;;;;;;5010635;28;20058;-64
2021/07/28 11:00:43;;;;;;;12.77;11.57;;;;;;;;;;5010293;28;20050;-64
2021/07/28 11:03:33;;;;;;;13.60;11.65;;;;;;;;;;5011246;28;20131;-64
2021/07/28 11:06:21;;;;;;;13.43;12.05;;;;;;;;;;5010633;28;20164;-64
2021/07/28 11:09:18;;;;;;;12.95;11.55;;;;;;;;;;5010239;28;20416;-65
2021/07/28 11:12:03;;;;;;;11.27;9.35;;;;;;;;;;5002318;28;20065;-64
2021/07/28 11:14:48;;;;;;;8.48;7.55;;;;;;;;;;5009011;28;20052;-64
2021/07/28 11:17:34;;;;;;;8.40;7.40;;;;;;;;;;5010792;28;20603;-64
2021/07/28 11:20:32;;;;;;;8.75;7.80;;;;;;;;;;5010727;28;20129;-64
2021/07/28 11:23:20;;;;;;;9.98;8.10;;;;;;;;;;5008831;28;20057;-64
2021/07/28 11:26:14;;;;;;;10.98;8.30;;;;;;;;;;5003898;28;20057;-67
2021/07/28 11:29:00;;;;;;;7.60;6.80;;;;;;;;;;5008621;28;20736;-65
2021/07/28 11:31:46;;;;;;;8.07;7.35;;;;;;;;;;5010432;28;20061;-65
2021/07/28 11:34:32;;;;;;;9.80;8.55;;;;;;;;;;5009193;28;20065;-64
2021/07/28 11:37:20;;;;;;;8.55;7.65;;;;;;;;;;5010480;28;20136;-65
2021/07/28 11:40:06;;;;;;;8.65;7.85;;;;;;;;;;5010210;28;20112;-64
2021/07/28 11:42:51;;;;;;;8.50;7.28;;;;;;;;;;5010458;28;20129;-65
2021/07/28 11:45:37;;;;;;;8.52;7.32;;;;;;;;;;5009424;28;20040;-65
2021/07/28 11:48:46;;;;;;;8.57;7.18;;;;;;;;;;5009076;28;20061;-64
2021/07/28 11:51:33;;;;;;;9.15;6.47;;;;;;;;;;5010449;28;20077;-64
2021/07/28 11:54:18;;;;;;;8.20;7.20;;;;;;;;;;5009881;28;20050;-64
2021/07/28 11:57:03;;;;;;;8.57;6.80;;;;;;;;;;5008602;28;20061;-64
2021/07/28 11:59:49;;;;;;;9.65;6.72;;;;;;;;;;5010278;28;20038;-65
2021/07/28 12:02:34;;;;;;;6.97;5.68;;;;;;;;;;5009810;28;20128;-65
2021/07/28 12:05:19;;;;;;;6.97;6.10;;;;;;;;;;5009444;28;20056;-64
2021/07/28 12:08:05;;;;;;;6.75;5.97;;;;;;;;;;5009386;28;20053;-64
2021/07/28 12:11:01;;;;;;;9.07;5.93;;;;;;;;;;5007972;28;20435;-64
2021/07/28 12:13:48;;;;;;;6.93;5.40;;;;;;;;;;5017146;28;20046;-65
2021/07/28 12:16:42;;;;;;;10.02;6.22;;;;;;;;;;5015411;28;20072;-64
2021/07/28 12:19:31;;;;;;;11.70;5.25;;;;;;;;;;5017915;28;20539;-64
2021/07/28 12:22:16;;;;;;;6.72;5.30;;;;;;;;;;5018134;28;20133;-64
2021/07/28 12:25:14;;;;;;;5.95;5.35;;;;;;;;;;5011506;28;20041;-64
2021/07/28 12:28:03;;;;;;;14.15;5.78;;;;;;;;;;5018096;28;20041;-64
2021/07/28 12:30:57;;;;;;;8.07;5.57;;;;;;;;;;5023015;28;20078;-65
2021/07/28 12:33:42;;;;;;;9.57;5.45;;;;;;;;;;5020087;28;20037;-64
2021/07/28 12:36:30;;;;;;;6.60;5.45;;;;;;;;;;5019606;28;20136;-64
2021/07/28 12:39:15;;;;;;;9.73;6.15;;;;;;;;;;5015480;28;20566;-64
2021/07/28 12:42:01;;;;;;;8.57;6.35;;;;;;;;;;4993075;28;20049;-64
2021/07/28 12:44:46;;;;;;;8.32;5.53;;;;;;;;;;4994164;28;20625;-64
2021/07/28 12:47:31;;;;;;;6.22;5.25;;;;;;;;;;5000743;28;20061;-64
2021/07/28 12:50:17;;;;;;;6.30;5.70;;;;;;;;;;5012482;28;20108;-64
2021/07/28 12:53:03;;;;;;;6.32;5.72;;;;;;;;;;5013130;28;20045;-64
2021/07/28 12:55:49;;;;;;;7.60;5.28;;;;;;;;;;5015862;28;20522;-65
2021/07/28 12:58:34;;;;;;;9.77;5.20;;;;;;;;;;5012563;28;20050;-64
2021/07/28 13:01:20;;;;;;;8.32;4.90;;;;;;;;;;5013342;28;20073;-64
2021/07/28 13:04:07;;;;;;;9.77;4.78;;;;;;;;;;5012844;28;20535;-64
2021/07/28 13:06:56;;;;;;;5.57;4.00;;;;;;;;;;5013344;28;20045;-64
2021/07/28 13:09:41;;;;;;;6.53;3.75;;;;;;;;;;5012034;28;20053;-65
2021/07/28 13:12:26;;;;;;;5.25;3.97;;;;;;;;;;5013290;28;20500;-64
2021/07/28 13:15:12;;;;;;;6.00;3.47;;;;;;;;;;4992932;28;20517;-64
2021/07/28 13:17:57;;;;;;;12.70;3.03;;;;;;;;;;4993628;28;20049;-64
2021/07/28 13:20:43;;;;;;;5.00;2.90;;;;;;;;;;5011954;28;20120;-64
2021/07/28 13:23:29;;;;;;;7.47;3.05;;;;;;;;;;5012972;28;20072;-64
2021/07/28 13:26:14;;;;;;;5.07;3.17;;;;;;;;;;5003890;28;20124;-65
2021/07/28 13:29:00;;;;;;;6.78;3.30;;;;;;;;;;5011076;28;20048;-66
2021/07/28 13:31:46;;;;;;;6.45;3.17;;;;;;;;;;5019998;28;20052;-65
2021/07/28 13:34:31;;;;;;;6.60;3.38;;;;;;;;;;5021106;28;20060;-65
2021/07/28 13:37:16;;;;;;;4.65;3.50;;;;;;;;;;5020746;28;20048;-64
2021/07/28 13:40:08;;;;;;;8.82;3.42;;;;;;;;;;5018276;28;20077;-64
2021/07/28 13:42:54;;;;;;;5.20;3.75;;;;;;;;;;5020070;28;20080;-64
2021/07/28 13:45:40;;;;;;;4.38;3.38;;;;;;;;;;5016378;28;20149;-65
2021/07/28 13:48:26;;;;;;;3.80;2.90;;;;;;;;;;5021619;28;20049;-65
2021/07/28 13:51:12;;;;;;;4.97;2.88;;;;;;;;;;5019069;28;20061;-65
2021/07/28 13:53:57;;;;;;;5.25;3.50;;;;;;;;;;5018538;28;20416;-65
2021/07/28 13:56:42;;;;;;;5.22;2.90;;;;;;;;;;5013697;28;20061;-65
2021/07/28 13:59:27;;;;;;;4.45;3.35;;;;;;;;;;5011777;28;20516;-65
2021/07/28 14:02:14;;;;;;;6.63;3.40;;;;;;;;;;5011066;28;20038;-65
2021/07/28 14:05:01;;;;;;;5.82;3.20;;;;;;;;;;5011536;28;20049;-66
2021/07/28 14:07:46;;;;;;;4.97;3.38;;;;;;;;;;5012153;28;20053;-66
2021/07/28 14:10:31;;;;;;;13.00;3.95;;;;;;;;;;5010455;28;20133;-66
2021/07/28 14:13:16;;;;;;;5.65;3.38;;;;;;;;;;5011461;28;20523;-65
2021/07/28 14:16:02;;;;;;;5.38;3.47;;;;;;;;;;5011344;28;20081;-65
2021/07/28 14:18:47;;;;;;;4.97;3.78;;;;;;;;;;5012029;28;20056;-66
2021/07/28 14:21:33;;;;;;;4.72;2.90;;;;;;;;;;5010779;28;20061;-65
2021/07/28 14:24:18;;;;;;;5.97;3.05;;;;;;;;;;5010983;28;20074;-65
2021/07/28 14:27:03;;;;;;;5.80;3.20;;;;;;;;;;5006070;28;20077;-66
2021/07/28 14:29:49;;;;;;;7.13;3.42;;;;;;;;;;5011686;28;20053;-65
2021/07/28 14:32:34;;;;;;;7.07;3.65;;;;;;;;;;5010803;28;20108;-65
2021/07/28 14:35:19;;;;;;;7.20;3.88;;;;;;;;;;5010968;28;20049;-65
2021/07/28 14:38:04;;;;;;;4.57;3.42;;;;;;;;;;5011156;28;20185;-66
2021/07/28 14:40:53;;;;;;;8.00;3.63;;;;;;;;;;5009494;28;20053;-65
2021/07/28 14:43:38;;;;;;;3.95;3.60;;;;;;;;;;5011541;28;20046;-66
2021/07/28 14:46:23;;;;;;;6.43;4.57;;;;;;;;;;5011494;28;20065;-66
2021/07/28 14:49:09;;;;;;;14.35;6.10;;;;;;;;;;5010311;28;20503;-65
2021/07/28 14:51:58;;;;;;;5.65;4.97;;;;;;;;;;5010159;28;20412;-65
2021/07/28 14:54:43;;;;;;;6.43;5.82;;;;;;;;;;5010965;28;20049;-66
2021/07/28 14:57:28;;;;;;;5.68;5.10;;;;;;;;;;5010940;28;20139;-65
2021/07/28 15:00:14;;;;;;;6.47;5.10;;;;;;;;;;5008702;28;20050;-65
2021/07/28 15:03:02;;;;;;;5.53;5.03;;;;;;;;;;4990801;28;20050;-65
2021/07/28 15:05:47;;;;;;;6.07;5.10;;;;;;;;;;4990388;28;20054;-65
2021/07/28 15:08:34;;;;;;;7.97;6.53;;;;;;;;;;5006516;28;20496;-65
2021/07/28 15:11:19;;;;;;;6.78;5.60;;;;;;;;;;5008348;28;20050;-65
2021/07/28 15:14:04;;;;;;;6.03;5.47;;;;;;;;;;5008956;28;20073;-66
2021/07/28 15:16:49;;;;;;;6.10;5.50;;;;;;;;;;5011345;28;20061;-65
2021/07/28 15:19:35;;;;;;;6.97;4.85;;;;;;;;;;4991891;28;20061;-65
2021/07/28 15:22:20;;;;;;;7.80;5.53;;;;;;;;;;5005974;28;20061;-65
2021/07/28 15:25:06;;;;;;;8.05;5.82;;;;;;;;;;5004658;28;20415;-65
2021/07/28 15:27:51;;;;;;;7.57;6.20;;;;;;;;;;5009764;28;20046;-65
2021/07/28 15:30:37;;;;;;;7.20;5.70;;;;;;;;;;5010569;28;20046;-65
2021/07/28 15:33:25;;;;;;;9.88;6.40;;;;;;;;;;5010504;28;20064;-65
2021/07/28 15:36:10;;;;;;;10.43;6.60;;;;;;;;;;5010197;28;20137;-65
2021/07/28 15:39:02;;;;;;;8.98;7.20;;;;;;;;;;5009483;28;20049;-65
2021/07/28 15:41:47;;;;;;;;;;;;;;;;;;4995218;28;20066;-65
2021/07/28 15:44:33;;;;;;;9.60;6.82;;;;;;;;;;5009732;28;20450;-65
2021/07/28 15:47:18;;;;;;;7.53;5.78;;;;;;;;;;5010135;28;20050;-65
2021/07/28 15:50:04;;;;;;;7.30;6.57;;;;;;;;;;5010099;28;20049;-65
2021/07/28 15:52:50;;;;;;;5.93;5.13;;;;;;;;;;5010008;28;20455;-65
2021/07/28 15:55:35;;;;;;;6.20;5.00;;;;;;;;;;5009528;28;20067;-65
2021/07/28 15:58:20;;;;;;;5.57;4.10;;;;;;;;;;5009219;28;20120;-65
2021/07/28 16:01:08;;;;;;;5.30;3.92;;;;;;;;;;5008721;28;20044;-65
2021/07/28 16:03:54;;;;;;;7.05;3.95;;;;;;;;;;5008775;28;20050;-63
2021/07/28 16:06:40;;;;;;;4.47;3.65;;;;;;;;;;5010602;28;20396;-65
2021/07/28 16:09:25;;;;;;;5.72;3.97;;;;;;;;;;5009672;28;20052;-65
2021/07/28 16:12:10;;;;;;;5.85;3.38;;;;;;;;;;5008609;28;20053;-65
2021/07/28 16:15:03;;;;;;;8.48;5.18;;;;;;;;;;4990101;28;20061;-65
2021/07/28 16:19:38;;;;;;;9.35;5.70;;;;;;;;;;5129524;27;20811;-64
2021/07/28 16:22:27;;;;;;;10.18;5.43;;;;;;;;;;5140101;27;20043;-63